Hawarden, United Kingdom
Current Conditions -  °F | °C
As of 1:50 PM on Wednesday 26 Nov 2014 (Local Time) from EGNR Reporting Station
Haze Haze  
Wind Chill: 44°   Ceiling: 700
Heat Index: 46°   Visibility: 1.8mi
Dew Point: 46°   Wind: 5mph
Humidity: 100%   Direction: 320°NW
Pressure: 29.88"   Gusts: NA
Location:  53.18°N, 3.03°W
Report Text: EGNR 261350Z 32004KT 3000 BR BKN007 OVC017 08/08 Q1012
Loading
Personal Weather Stations






























Interactive Weather Map New forecast layout! Learn more

10-Day Weather Forecast

Advertisements
Track Severe Weather on mobile